Time;durP1;ratioP1;P1;durP2;ratioP2;P2;SDS_P1;SDS_P2;PMS_P1;PMS_P2;Temp;Humidity;BMP_temperature;BMP_pressure;BME280_temperature;BME280_humidity;BME280_pressure;Samples;Min_cycle;Max_cycle;Signal;HPM_P1;HPM_P2
2023/12/20 00:02:05;;;;;;;22.08;3.20;;;;;;;;;;5092865;28;20043;-83
2023/12/20 00:04:31;;;;;;;22.90;2.80;;;;;;;;;;5095506;27;20047;-84
2023/12/20 00:06:57;;;;;;;19.27;2.97;;;;;;;;;;5113657;28;20043;-84
2023/12/20 00:09:24;;;;;;;25.15;2.88;;;;;;;;;;5095648;27;20154;-83
2023/12/20 00:11:50;;;;;;;14.02;2.20;;;;;;;;;;5091547;28;20582;-82
2023/12/20 00:14:16;;;;;;;23.67;3.72;;;;;;;;;;5089089;27;20050;-84
2023/12/20 00:16:42;;;;;;;17.30;2.90;;;;;;;;;;5107883;27;20039;-82
2023/12/20 00:19:08;;;;;;;22.52;2.33;;;;;;;;;;5090978;27;20686;-81
2023/12/20 00:21:34;;;;;;;17.35;2.53;;;;;;;;;;5091287;27;20035;-83
2023/12/20 00:24:00;;;;;;;16.55;1.75;;;;;;;;;;5107862;27;20578;-83
2023/12/20 00:26:28;;;;;;;24.98;2.40;;;;;;;;;;5107591;27;20047;-83
2023/12/20 00:28:54;;;;;;;22.45;2.17;;;;;;;;;;5108074;27;20110;-83
2023/12/20 00:31:20;;;;;;;22.27;2.65;;;;;;;;;;5107563;27;20047;-82
2023/12/20 00:33:47;;;;;;;23.70;3.20;;;;;;;;;;5107937;27;20039;-83
2023/12/20 00:36:13;;;;;;;29.65;2.00;;;;;;;;;;5108114;27;20035;-84
2023/12/20 00:38:39;;;;;;;23.17;2.83;;;;;;;;;;5091483;27;20528;-83
2023/12/20 00:41:05;;;;;;;18.80;2.22;;;;;;;;;;5091095;27;20031;-82
2023/12/20 00:43:31;;;;;;;28.17;2.05;;;;;;;;;;5108287;27;20035;-84
2023/12/20 00:45:59;;;;;;;23.15;2.33;;;;;;;;;;5107892;27;20488;-82
2023/12/20 00:48:27;;;;;;;21.90;3.38;;;;;;;;;;5107751;27;20841;-82
2023/12/20 00:50:53;;;;;;;24.17;2.47;;;;;;;;;;5107859;27;20125;-83
2023/12/20 00:53:19;;;;;;;26.30;2.03;;;;;;;;;;5107560;27;20077;-83
2023/12/20 00:55:46;;;;;;;30.85;3.47;;;;;;;;;;5090388;27;20035;-84
2023/12/20 00:58:12;;;;;;;25.88;2.70;;;;;;;;;;5090791;27;20043;-83
2023/12/20 01:00:38;;;;;;;20.92;2.78;;;;;;;;;;5089870;27;20043;-84
2023/12/20 01:03:04;;;;;;;26.98;2.45;;;;;;;;;;5089741;27;20039;-82
2023/12/20 01:05:30;;;;;;;24.20;3.15;;;;;;;;;;5089385;27;20597;-84
2023/12/20 01:07:56;;;;;;;25.25;3.42;;;;;;;;;;5107295;27;20043;-83
2023/12/20 01:10:23;;;;;;;23.05;2.45;;;;;;;;;;5089698;27;20043;-83
2023/12/20 01:12:49;;;;;;;30.77;3.50;;;;;;;;;;5090640;27;20043;-83
2023/12/20 01:15:15;;;;;;;27.27;3.13;;;;;;;;;;5090147;27;20042;-82
2023/12/20 01:17:41;;;;;;;23.75;2.28;;;;;;;;;;5107055;27;20054;-83
2023/12/20 01:20:08;;;;;;;24.85;3.75;;;;;;;;;;5090058;27;20419;-83
2023/12/20 01:22:35;;;;;;;23.85;2.42;;;;;;;;;;5090030;27;20562;-83
2023/12/20 01:25:02;;;;;;;22.48;2.63;;;;;;;;;;5106335;27;20051;-83
2023/12/20 01:27:29;;;;;;;23.95;3.30;;;;;;;;;;5089928;27;20124;-82
2023/12/20 01:29:55;;;;;;;27.50;3.60;;;;;;;;;;5089758;27;20047;-82
2023/12/20 01:32:21;;;;;;;23.77;2.67;;;;;;;;;;5106897;27;20547;-83
2023/12/20 01:34:48;;;;;;;24.63;5.20;;;;;;;;;;5089835;27;20050;-83
2023/12/20 01:37:14;;;;;;;29.60;4.97;;;;;;;;;;5089538;27;20041;-84
2023/12/20 01:39:41;;;;;;;30.00;3.75;;;;;;;;;;5088859;27;20588;-83
2023/12/20 01:42:07;;;;;;;34.38;4.68;;;;;;;;;;5106062;27;20047;-83
2023/12/20 01:44:33;;;;;;;21.63;2.45;;;;;;;;;;5088832;27;20075;-83
2023/12/20 01:46:59;;;;;;;23.15;3.30;;;;;;;;;;5106098;27;20143;-84
2023/12/20 01:49:25;;;;;;;27.17;3.67;;;;;;;;;;5106401;27;20074;-84
2023/12/20 01:51:51;;;;;;;22.35;3.22;;;;;;;;;;5089997;27;20039;-84
2023/12/20 01:54:18;;;;;;;35.78;5.10;;;;;;;;;;5106742;27;20049;-83
2023/12/20 01:56:45;;;;;;;33.67;4.32;;;;;;;;;;5090028;27;20458;-82
2023/12/20 01:59:11;;;;;;;20.27;3.40;;;;;;;;;;5089985;27;20054;-84
2023/12/20 02:01:37;;;;;;;22.75;4.53;;;;;;;;;;5089783;27;20042;-83
2023/12/20 02:04:03;;;;;;;34.33;4.78;;;;;;;;;;5108135;27;20607;-85
2023/12/20 02:06:33;;;;;;;29.60;3.88;;;;;;;;;;5094611;27;20043;-82
2023/12/20 02:09:00;;;;;;;33.58;4.53;;;;;;;;;;5093974;27;20043;-83
2023/12/20 02:11:26;;;;;;;27.58;4.88;;;;;;;;;;5093797;27;20495;-82
2023/12/20 02:13:55;;;;;;;30.27;4.38;;;;;;;;;;5093429;27;20082;-83
2023/12/20 02:16:22;;;;;;;35.63;3.97;;;;;;;;;;5089914;27;20092;-83
2023/12/20 02:18:48;;;;;;;33.25;3.58;;;;;;;;;;5090015;27;20042;-84
2023/12/20 02:21:15;;;;;;;36.22;4.40;;;;;;;;;;5107300;27;20120;-83
2023/12/20 02:23:41;;;;;;;36.88;5.88;;;;;;;;;;5089564;27;20499;-83
2023/12/20 02:26:07;;;;;;;27.15;3.20;;;;;;;;;;5089721;27;20043;-85
2023/12/20 02:28:34;;;;;;;31.15;3.90;;;;;;;;;;5089090;27;20061;-85
2023/12/20 02:31:00;;;;;;;28.77;3.75;;;;;;;;;;5106071;27;20187;-83
2023/12/20 02:33:26;;;;;;;32.50;3.22;;;;;;;;;;5089152;27;20073;-83
2023/12/20 02:35:52;;;;;;;30.70;4.65;;;;;;;;;;5089117;27;20043;-83
2023/12/20 02:38:19;;;;;;;36.67;5.22;;;;;;;;;;5088812;27;20035;-83
2023/12/20 02:40:45;;;;;;;23.20;3.67;;;;;;;;;;5088009;27;20130;-82
2023/12/20 02:43:11;;;;;;;26.00;3.75;;;;;;;;;;5105555;27;20061;-82
2023/12/20 02:45:37;;;;;;;33.25;5.60;;;;;;;;;;5105454;27;20453;-83
2023/12/20 02:48:03;;;;;;;29.98;3.83;;;;;;;;;;5088077;27;20109;-84
2023/12/20 02:50:29;;;;;;;24.63;3.58;;;;;;;;;;5088424;27;20039;-83
2023/12/20 02:52:56;;;;;;;34.47;5.32;;;;;;;;;;5088543;28;20453;-83
2023/12/20 02:55:22;;;;;;;35.53;3.95;;;;;;;;;;5088328;27;20053;-83
2023/12/20 02:57:48;;;;;;;42.55;5.75;;;;;;;;;;5088294;27;20078;-82
2023/12/20 03:00:14;;;;;;;26.58;4.00;;;;;;;;;;5088569;28;20116;-83
2023/12/20 03:02:40;;;;;;;33.03;4.15;;;;;;;;;;5087682;27;20079;-83
2023/12/20 03:05:07;;;;;;;31.65;4.13;;;;;;;;;;5087905;28;20822;-83
2023/12/20 03:07:33;;;;;;;34.63;4.28;;;;;;;;;;5087837;27;20046;-82
2023/12/20 03:09:59;;;;;;;34.83;3.85;;;;;;;;;;5088400;28;20708;-84
2023/12/20 03:12:25;;;;;;;32.30;4.60;;;;;;;;;;5088933;28;20509;-83
2023/12/20 03:14:51;;;;;;;29.67;4.82;;;;;;;;;;5088306;28;20443;-84
2023/12/20 03:17:18;;;;;;;28.80;3.92;;;;;;;;;;5088021;28;20492;-83
2023/12/20 03:19:44;;;;;;;33.13;3.85;;;;;;;;;;5088645;27;20146;-83
2023/12/20 03:22:10;;;;;;;36.00;4.00;;;;;;;;;;5088661;28;20047;-83
2023/12/20 03:24:37;;;;;;;52.92;8.38;;;;;;;;;;5088509;27;20035;-83
2023/12/20 03:27:03;;;;;;;29.60;4.28;;;;;;;;;;5105838;28;20183;-83
2023/12/20 03:29:29;;;;;;;36.47;4.38;;;;;;;;;;5088378;28;20050;-83
2023/12/20 03:31:56;;;;;;;43.00;6.22;;;;;;;;;;5105050;28;20646;-83
2023/12/20 03:34:25;;;;;;;41.30;6.88;;;;;;;;;;5088131;28;20046;-81
2023/12/20 03:36:51;;;;;;;49.67;5.63;;;;;;;;;;5088260;28;20078;-84
2023/12/20 03:39:17;;;;;;;27.13;4.07;;;;;;;;;;5088327;28;20046;-83
2023/12/20 03:41:43;;;;;;;34.85;7.00;;;;;;;;;;5088221;28;20047;-83
2023/12/20 03:44:09;;;;;;;43.33;5.55;;;;;;;;;;5123629;27;20038;-82
2023/12/20 03:46:35;;;;;;;45.03;6.53;;;;;;;;;;5088010;27;20043;-83
2023/12/20 03:49:01;;;;;;;39.65;5.57;;;;;;;;;;5090086;27;20671;-82
2023/12/20 03:51:27;;;;;;;42.28;4.85;;;;;;;;;;5091759;27;20039;-84
2023/12/20 03:53:54;;;;;;;40.35;6.35;;;;;;;;;;5091702;27;20050;-83
2023/12/20 03:56:20;;;;;;;33.40;3.88;;;;;;;;;;5108662;27;20973;-83
2023/12/20 03:58:46;;;;;;;31.42;4.38;;;;;;;;;;5092147;27;20578;-83
2023/12/20 04:01:12;;;;;;;32.20;6.70;;;;;;;;;;5091607;27;20042;-84
2023/12/20 04:03:40;;;;;;;39.35;5.63;;;;;;;;;;5092249;27;20050;-84
2023/12/20 04:06:06;;;;;;;43.75;4.60;;;;;;;;;;5092942;27;20039;-83
2023/12/20 04:08:32;;;;;;;35.28;6.25;;;;;;;;;;5096697;27;20035;-83
2023/12/20 04:10:58;;;;;;;42.65;6.20;;;;;;;;;;5098452;27;20035;-82
2023/12/20 04:13:25;;;;;;;35.25;4.63;;;;;;;;;;5115193;27;20047;-82
2023/12/20 04:15:52;;;;;;;38.63;4.75;;;;;;;;;;5114567;27;20070;-84
2023/12/20 04:18:18;;;;;;;39.83;5.93;;;;;;;;;;5110656;27;20043;-84
2023/12/20 04:20:44;;;;;;;41.35;7.57;;;;;;;;;;5091973;27;20495;-82
2023/12/20 04:23:10;;;;;;;44.60;5.38;;;;;;;;;;5109047;27;20039;-82
2023/12/20 04:25:36;;;;;;;42.05;6.35;;;;;;;;;;5091664;27;20043;-83
2023/12/20 04:28:02;;;;;;;45.65;5.40;;;;;;;;;;5107720;27;20046;-83
2023/12/20 04:30:29;;;;;;;45.03;5.00;;;;;;;;;;5091323;27;20083;-84
2023/12/20 04:32:55;;;;;;;40.53;5.40;;;;;;;;;;5108571;27;20039;-82
2023/12/20 04:35:21;;;;;;;40.80;4.95;;;;;;;;;;5091489;27;20039;-83
2023/12/20 04:37:49;;;;;;;43.00;8.05;;;;;;;;;;5108724;27;20705;-83
2023/12/20 04:40:15;;;;;;;44.15;6.50;;;;;;;;;;5108262;27;20055;-82
2023/12/20 04:42:41;;;;;;;44.70;7.95;;;;;;;;;;5107868;27;20043;-82
2023/12/20 04:45:08;;;;;;;48.15;6.70;;;;;;;;;;5090987;27;20046;-82
2023/12/20 04:47:34;;;;;;;49.88;7.18;;;;;;;;;;5090770;27;20043;-83
2023/12/20 04:50:00;;;;;;;48.97;7.00;;;;;;;;;;5090116;27;20192;-83
2023/12/20 04:52:26;;;;;;;37.78;4.63;;;;;;;;;;5089774;27;20042;-83
2023/12/20 04:54:52;;;;;;;45.25;5.65;;;;;;;;;;5090223;27;20043;-84
2023/12/20 04:57:19;;;;;;;44.22;4.85;;;;;;;;;;5107384;27;20039;-83
2023/12/20 04:59:45;;;;;;;51.00;5.60;;;;;;;;;;5089338;27;20061;-83
2023/12/20 05:02:11;;;;;;;42.53;6.43;;;;;;;;;;5107206;27;20047;-83
2023/12/20 05:04:37;;;;;;;55.58;7.70;;;;;;;;;;5090287;27;20102;-82
2023/12/20 05:07:04;;;;;;;59.75;7.60;;;;;;;;;;5090765;27;20054;-82
2023/12/20 05:09:31;;;;;;;29.77;4.35;;;;;;;;;;5106996;27;20623;-84
2023/12/20 05:11:57;;;;;;;40.67;6.40;;;;;;;;;;5106789;27;20047;-82
2023/12/20 05:14:24;;;;;;;48.75;6.50;;;;;;;;;;5107368;27;20087;-83
2023/12/20 05:16:50;;;;;;;44.85;4.97;;;;;;;;;;5107048;27;20043;-83
2023/12/20 05:19:16;;;;;;;50.42;7.25;;;;;;;;;;5107371;27;20046;-83
2023/12/20 05:21:42;;;;;;;45.15;5.57;;;;;;;;;;5107879;27;20039;-82
2023/12/20 05:24:09;;;;;;;39.83;5.70;;;;;;;;;;5090523;27;20137;-83
2023/12/20 05:26:35;;;;;;;45.60;6.82;;;;;;;;;;5107191;27;20062;-82
2023/12/20 05:29:01;;;;;;;49.38;6.55;;;;;;;;;;5106477;27;20043;-83
2023/12/20 05:31:27;;;;;;;44.28;4.95;;;;;;;;;;5106391;27;20075;-83
2023/12/20 05:33:53;;;;;;;48.72;4.82;;;;;;;;;;5089772;27;20051;-83
2023/12/20 05:36:19;;;;;;;33.33;4.80;;;;;;;;;;5107031;27;20050;-82
2023/12/20 05:38:46;;;;;;;36.45;5.47;;;;;;;;;;5089595;27;20043;-83
2023/12/20 05:41:12;;;;;;;45.55;6.25;;;;;;;;;;5090073;27;20042;-83
2023/12/20 05:43:38;;;;;;;38.42;4.57;;;;;;;;;;5090166;27;20112;-83
2023/12/20 05:46:04;;;;;;;36.75;4.40;;;;;;;;;;5089714;27;20806;-82
2023/12/20 05:48:30;;;;;;;34.42;5.28;;;;;;;;;;5106201;27;20082;-83
2023/12/20 05:50:56;;;;;;;46.67;5.50;;;;;;;;;;5089429;27;20042;-82
2023/12/20 05:53:22;;;;;;;31.20;5.10;;;;;;;;;;5106639;27;20051;-83
2023/12/20 05:55:49;;;;;;;47.97;5.63;;;;;;;;;;5089405;27;20147;-84
2023/12/20 05:58:15;;;;;;;38.95;5.30;;;;;;;;;;5106794;27;20035;-83
2023/12/20 06:00:41;;;;;;;38.58;4.88;;;;;;;;;;5089191;27;20166;-83
2023/12/20 06:03:07;;;;;;;42.70;6.72;;;;;;;;;;5106624;27;20043;-82
2023/12/20 06:05:33;;;;;;;43.28;4.88;;;;;;;;;;5106122;27;20046;-82
2023/12/20 06:08:02;;;;;;;45.15;6.63;;;;;;;;;;5105476;27;20407;-82
2023/12/20 06:10:29;;;;;;;47.60;6.03;;;;;;;;;;5089273;27;20039;-83
2023/12/20 06:12:56;;;;;;;36.42;5.47;;;;;;;;;;5105462;27;20045;-83
2023/12/20 06:15:23;;;;;;;47.08;6.30;;;;;;;;;;5089097;27;20769;-82
2023/12/20 06:17:49;;;;;;;45.72;4.60;;;;;;;;;;5106828;27;20043;-83
2023/12/20 06:20:15;;;;;;;41.72;5.25;;;;;;;;;;5106549;27;20043;-82
2023/12/20 06:22:41;;;;;;;38.15;5.53;;;;;;;;;;5088796;27;20035;-82
2023/12/20 06:25:08;;;;;;;37.05;5.78;;;;;;;;;;5105520;27;20043;-82
2023/12/20 06:27:34;;;;;;;38.15;4.25;;;;;;;;;;5088631;27;20043;-83
2023/12/20 06:30:01;;;;;;;41.22;5.25;;;;;;;;;;5105239;27;20062;-82
2023/12/20 06:32:28;;;;;;;43.75;6.07;;;;;;;;;;5105704;27;20069;-83
2023/12/20 06:34:54;;;;;;;28.65;4.18;;;;;;;;;;5088301;27;20038;-82
2023/12/20 06:37:21;;;;;;;34.78;3.75;;;;;;;;;;5089087;27;20496;-83
2023/12/20 06:39:47;;;;;;;41.92;5.38;;;;;;;;;;5089033;27;20051;-83
2023/12/20 06:42:13;;;;;;;45.47;5.65;;;;;;;;;;5088727;27;20801;-83
2023/12/20 06:44:39;;;;;;;41.83;5.05;;;;;;;;;;5105708;27;20050;-82
2023/12/20 06:47:06;;;;;;;45.55;6.55;;;;;;;;;;5105795;28;20049;-83
2023/12/20 06:49:37;;;;;;;42.30;6.20;;;;;;;;;;5088983;27;20081;-83
2023/12/20 06:52:03;;;;;;;40.83;6.27;;;;;;;;;;5106036;27;20039;-82
2023/12/20 06:54:30;;;;;;;38.38;4.35;;;;;;;;;;5089207;27;20131;-82
2023/12/20 06:56:56;;;;;;;38.78;4.20;;;;;;;;;;5088619;27;20042;-83
2023/12/20 06:59:22;;;;;;;55.70;6.78;;;;;;;;;;5105502;27;20054;-83
2023/12/20 07:01:49;;;;;;;45.20;6.40;;;;;;;;;;5105926;27;20043;-83
2023/12/20 07:04:19;;;;;;;40.78;6.38;;;;;;;;;;5106022;28;20053;-83
2023/12/20 07:06:46;;;;;;;42.15;5.72;;;;;;;;;;5105615;28;20079;-83
2023/12/20 07:09:13;;;;;;;42.40;4.75;;;;;;;;;;5089218;28;20115;-84
2023/12/20 07:11:39;;;;;;;46.55;5.45;;;;;;;;;;5105696;28;20492;-83
2023/12/20 07:14:05;;;;;;;34.00;5.10;;;;;;;;;;5088340;28;20066;-83
2023/12/20 07:16:31;;;;;;;50.47;7.03;;;;;;;;;;5089055;28;20035;-82
2023/12/20 07:18:58;;;;;;;38.25;4.60;;;;;;;;;;5105589;28;20050;-82
2023/12/20 07:21:24;;;;;;;40.75;6.07;;;;;;;;;;5105144;28;20050;-83
2023/12/20 07:23:50;;;;;;;35.95;6.43;;;;;;;;;;5090889;27;20047;-83
2023/12/20 07:26:17;;;;;;;34.88;4.53;;;;;;;;;;5109650;27;20466;-83
2023/12/20 07:28:43;;;;;;;45.15;5.25;;;;;;;;;;5092654;27;20035;-82
2023/12/20 07:31:09;;;;;;;38.00;4.85;;;;;;;;;;5092595;27;20039;-84
2023/12/20 07:33:35;;;;;;;38.35;7.38;;;;;;;;;;5110186;27;20039;-83
2023/12/20 07:36:02;;;;;;;51.63;5.82;;;;;;;;;;5092959;27;20035;-84
2023/12/20 07:38:28;;;;;;;44.60;4.97;;;;;;;;;;5093417;27;20054;-82
2023/12/20 07:40:54;;;;;;;44.58;6.45;;;;;;;;;;5109909;27;20073;-83
2023/12/20 07:43:21;;;;;;;38.03;5.47;;;;;;;;;;5092838;27;20047;-82
2023/12/20 07:45:47;;;;;;;53.97;8.15;;;;;;;;;;5109707;27;20076;-83
2023/12/20 07:48:13;;;;;;;35.05;4.70;;;;;;;;;;5092957;27;20051;-83
2023/12/20 07:50:40;;;;;;;44.25;9.10;;;;;;;;;;5109058;27;20217;-82
2023/12/20 07:53:06;;;;;;;33.05;4.85;;;;;;;;;;5116175;27;20555;-82
2023/12/20 07:55:32;;;;;;;41.45;4.82;;;;;;;;;;5113369;27;20042;-83
2023/12/20 07:57:58;;;;;;;36.47;4.55;;;;;;;;;;5130936;27;20038;-82
2023/12/20 08:00:25;;;;;;;36.42;6.88;;;;;;;;;;5113976;27;20034;-83
2023/12/20 08:02:51;;;;;;;40.15;5.07;;;;;;;;;;5113878;27;20045;-83
2023/12/20 08:05:17;;;;;;;37.80;3.83;;;;;;;;;;5131528;27;20050;-82
2023/12/20 08:07:43;;;;;;;46.08;8.75;;;;;;;;;;5113905;27;20069;-83
2023/12/20 08:10:10;;;;;;;50.33;7.30;;;;;;;;;;5131886;27;20054;-82
2023/12/20 08:12:39;;;;;;;43.85;6.82;;;;;;;;;;5116402;27;20066;-83
2023/12/20 08:15:06;;;;;;;30.17;4.75;;;;;;;;;;5116694;27;20045;-83
2023/12/20 08:17:32;;;;;;;38.70;5.18;;;;;;;;;;5116509;27;20069;-83
2023/12/20 08:19:59;;;;;;;30.73;5.30;;;;;;;;;;5132816;27;20194;-83
2023/12/20 08:22:25;;;;;;;36.67;3.85;;;;;;;;;;5113967;27;20065;-83
2023/12/20 08:24:51;;;;;;;37.80;4.68;;;;;;;;;;5107757;27;20082;-83
2023/12/20 08:27:18;;;;;;;33.47;5.00;;;;;;;;;;5120340;27;20073;-83
2023/12/20 08:29:45;;;;;;;46.47;5.70;;;;;;;;;;5104230;27;20753;-83
2023/12/20 08:32:11;;;;;;;36.72;4.63;;;6.10;99.90;;;;;;5120993;27;20031;-83
2023/12/20 08:34:37;;;;;;;37.58;6.75;;;;;;;;;;5127445;27;20041;-83
2023/12/20 08:37:04;;;;;;;39.90;6.63;;;;;;;;;;5126729;27;20041;-83
2023/12/20 08:39:30;;;;;;;24.02;4.45;;;;;;;;;;5104794;27;20047;-84
2023/12/20 08:41:56;;;;;;;46.15;5.43;;;;;;;;;;5123165;27;20049;-81
2023/12/20 08:44:22;;;;;;;40.13;5.72;;;;;;;;;;5127400;27;20046;-83
2023/12/20 08:46:48;;;;;;;25.50;4.25;;;;;;;;;;5127310;27;20118;-82
2023/12/20 08:49:15;;;;;;;24.20;3.30;;;;;;;;;;5124640;27;20610;-83
2023/12/20 08:51:41;;;;;;;20.20;2.10;;;;;;;;;;5104084;27;20448;-82
2023/12/20 08:54:08;;;;;;;29.42;3.10;;;;;;;;;;5101181;27;20035;-82
2023/12/20 08:56:34;;;;;;;17.67;1.40;;;;;;;;;;5099534;27;20043;-82
2023/12/20 08:59:00;;;;;;;20.70;2.17;;;;;;;;;;5101161;27;20052;-83
2023/12/20 09:01:26;;;;;;;22.13;2.75;;;;;;;;;;5117864;27;20784;-82
2023/12/20 09:03:53;;;;;;;20.25;1.50;;;;;;;;;;5115920;27;20063;-82
2023/12/20 09:06:19;;;;;;;19.67;2.00;;;;;;;;;;5100688;27;20121;-83
2023/12/20 09:08:45;;;;;;;19.60;1.98;;;;;;;;;;5099763;27;20035;-83
2023/12/20 09:11:11;;;;;;;22.73;2.35;;;;;;;;;;5097037;27;20042;-82
2023/12/20 09:13:37;;;;;;;25.88;3.25;;;;;;;;;;5097175;27;20035;-81
2023/12/20 09:16:04;;;;;;;28.77;2.38;;;;;;;;;;5115380;27;20041;-81
2023/12/20 09:18:30;;;;;;;37.03;6.50;;;;;;;;;;5099831;27;20416;-82
2023/12/20 09:20:56;;;;;;;28.05;3.33;;;;;;;;;;5097590;27;20046;-83
2023/12/20 09:23:22;;;;;;;19.17;3.15;;;;;;;;;;5116432;27;20074;-81
2023/12/20 09:25:48;;;;;;;32.38;4.65;;;;;;;;;;5115648;27;20393;-82
2023/12/20 09:28:14;;;;;;;36.83;6.07;;;;;;;;;;5099118;27;20054;-82
2023/12/20 09:30:41;;;;;;;18.48;1.63;;;;;;;;;;5121370;27;20419;-84
2023/12/20 09:33:07;;;;;;;14.27;2.67;;;;;;;;;;5107595;27;20065;-85
2023/12/20 09:35:33;;;;;;;11.55;0.60;;;;;;;;;;5124459;27;20058;-82
2023/12/20 09:38:00;;;;;;;7.57;0.70;;;;;;;;;;5127099;27;20146;-83
2023/12/20 09:40:26;;;;;;;12.18;0.85;;;;;;;;;;5126941;27;20491;-82
2023/12/20 09:43:19;;;;;;;6.30;0.45;;;;;;;;;;5109620;27;20046;-82
2023/12/20 09:45:47;;;;;;;12.70;0.60;;;;;;;;;;5121655;27;20057;-85
2023/12/20 09:48:16;;;;;;;9.52;1.00;;;;;;;;;;5108902;27;20569;-84
2023/12/20 09:50:42;;;;;;;7.20;0.47;;;;;;;;;;5109654;27;20080;-82
2023/12/20 09:53:10;;;;;;;7.93;0.57;;;;;;;;;;5124587;27;20046;-82
2023/12/20 09:55:38;;;;;;;9.82;0.55;;;;;;;;;;5120055;27;20050;-82
2023/12/20 09:58:05;;;;;;;9.73;1.05;;;;;;;;;;5121812;27;20038;-82
2023/12/20 10:00:31;;;;;;;11.82;1.25;;;;;;;;;;5101244;27;20402;-83
2023/12/20 10:02:58;;;;;;;9.52;0.60;;;;;;;;;;5125506;27;20505;-84
2023/12/20 10:05:28;;;;;;;12.82;1.10;;;;;;;;;;5134360;27;20114;-84
2023/12/20 10:07:55;;;;;;;14.23;0.50;;;;;;;;;;5099735;27;20039;-83
2023/12/20 10:10:21;;;;;;;11.23;0.45;;;;;;;;;;5107835;27;20035;-83
2023/12/20 10:13:08;;;;;;;6.47;0.63;;;;;;;;;;5126021;27;20081;-82
2023/12/20 10:15:34;;;;;;;13.98;1.88;;;;;;;;;;5117709;27;20050;-83
2023/12/20 10:18:01;;;;;;;6.13;0.40;;;;;;;;;;5115352;27;20090;-83
2023/12/20 10:20:28;;;;;;;8.52;0.80;;;;;;;;;;5128833;27;20043;-83
2023/12/20 10:22:58;;;;;;;15.65;0.95;;;;;;;;;;5110408;27;20086;-82
2023/12/20 10:25:25;;;;;;;9.02;0.50;;;;;;;;;;5128599;27;20085;-83
2023/12/20 10:28:08;;;;;;;9.00;0.65;;;;;;;;;;5110577;27;20046;-83
2023/12/20 10:30:35;;;;;;;11.07;0.70;;;;;;;;;;5111263;27;20109;-83
2023/12/20 10:33:01;;;;;;;13.82;1.02;;;;;;;;;;5110954;27;20031;-85
2023/12/20 10:35:27;;;;;;;13.27;1.17;;;;;;;;;;5113105;27;20041;-82
2023/12/20 10:37:56;;;;;;;16.27;1.10;;;;;;;;;;5111317;27;20762;-83
2023/12/20 10:40:23;;;;;;;14.55;2.88;;;;;;;;;;5103059;27;20035;-83
2023/12/20 10:42:51;;;;;;;9.35;0.43;;;;;;;;;;5126703;27;20047;-83
2023/12/20 10:45:17;;;;;;;7.70;1.63;;;;;;;;;;5091818;27;20043;-82
2023/12/20 10:47:46;;;;;;;12.90;0.93;;;;;;;;;;5109485;27;20042;-83
2023/12/20 10:50:12;;;;;;;13.70;0.77;;;;;;;;;;5092268;27;20047;-84
2023/12/20 10:52:38;;;;;;;16.73;2.05;;;;;;;;;;5107764;27;20086;-84
2023/12/20 10:55:05;;;;;;;8.27;0.60;;;;;;;;;;5089490;27;20074;-82
2023/12/20 10:57:31;;;;;;;12.48;1.55;;;;;;;;;;5105106;27;20039;-83
2023/12/20 10:59:59;;;;;;;21.20;1.55;;;;;;;;;;5106298;28;20146;-84
2023/12/20 11:02:26;;;;;;;17.20;1.27;;;;;;;;;;5088187;28;20055;-82
2023/12/20 11:05:08;;;;;;;12.95;1.17;;;;;;;;;;5087736;28;20130;-82
2023/12/20 11:07:37;;;;;;;14.95;0.43;;;;;;;;;;5105181;28;20047;-83
2023/12/20 11:10:07;;;;;;;13.45;1.45;;;;;;;;;;5088226;28;20069;-83
2023/12/20 11:12:41;;;;;;;14.02;1.05;;;;;;;;;;5123972;28;20047;-83
2023/12/20 11:15:08;;;;;;;7.90;0.60;;;;;;;;;;5088911;28;20039;-84
2023/12/20 11:17:34;;;;;;;8.30;1.05;;;;;;;;;;5088252;28;20553;-84
2023/12/20 11:20:01;;;;;;;14.82;0.70;;;;;;;;;;5105379;28;20686;-83
2023/12/20 11:22:31;;;;;;;16.08;0.73;;;;;;;;;;5088139;28;20079;-83
2023/12/20 11:25:10;;;;;;;16.35;1.70;;;;;;;;;;5110510;27;20039;-84
2023/12/20 11:27:37;;;;;;;9.35;1.00;;;;;;;;;;5103030;27;20042;-83
2023/12/20 11:30:06;;;;;;;21.25;1.70;;;;;;;;;;5126635;27;20038;-83
2023/12/20 11:32:35;;;;;;;13.85;1.95;;;;;;;;;;5126127;27;20095;-84
2023/12/20 11:35:10;;;;;;;16.85;2.08;;;;;;;;;;5126005;27;20042;-84
2023/12/20 11:37:37;;;;;;;16.17;1.50;;;;;;;;;;5125946;27;20042;-84
2023/12/20 11:40:05;;;;;;;15.88;1.90;;;;;;;;;;5125940;27;20046;-84
2023/12/20 11:42:50;;;;;;;18.55;3.92;;;;;;;;;;5125446;27;20555;-83
2023/12/20 11:45:21;;;;;;;17.15;1.13;;;;;;;;;;5125202;27;20058;-83
2023/12/20 11:47:55;;;;;;;14.60;2.85;;;;;;;;;;5125510;27;20087;-84
2023/12/20 11:50:22;;;;;;;12.95;0.88;;;;;;;;;;5108569;27;20759;-84
2023/12/20 11:52:49;;;;;;;13.45;1.08;;;;;;;;;;5108521;27;20050;-84
2023/12/20 11:55:15;;;;;;;14.90;1.02;;;;;;;;;;5124882;27;20791;-83
2023/12/20 11:57:42;;;;;;;13.43;1.70;;;;;;;;;;5122182;27;20499;-81
2023/12/20 12:00:09;;;;;;;14.23;2.25;;;;;;;;;;5096027;28;20075;-84
2023/12/20 12:02:35;;;;;;;19.75;2.25;;;;;;;;;;5087554;28;20042;-84
2023/12/20 12:05:01;;;;;;;12.18;0.98;;;;;;;;;;5105145;28;20486;-84
2023/12/20 12:07:27;;;;;;;13.80;2.97;;;;;;;;;;5105946;28;20064;-83
2023/12/20 12:09:53;;;;;;;9.10;1.00;;;;;;;;;;5109289;27;20068;-83
2023/12/20 12:12:20;;;;;;;18.05;1.35;;;;;;;;;;5094111;27;20034;-84
2023/12/20 12:14:46;;;;;;;17.05;1.60;;;;;;;;;;5109294;27;20503;-83
2023/12/20 12:17:13;;;;;;;16.42;1.05;;;;;;;;;;5109210;27;20578;-83
2023/12/20 12:19:40;;;;;;;18.30;1.75;;;;;;;;;;5128879;27;20499;-81
2023/12/20 12:22:13;;;;;;;16.13;1.58;;;;;;;;;;5129060;27;20050;-82
2023/12/20 12:24:49;;;;;;;14.50;1.02;;;;;;;;;;5110782;27;20038;-85
2023/12/20 12:27:15;;;;;;;25.15;3.42;;;;;;;;;;5128664;27;20042;-85
2023/12/20 12:30:00;;;;;;;16.98;1.48;;;;;;;;;;5128370;27;20043;-83
2023/12/20 12:32:26;;;;;;;11.60;1.38;;;;;;;;;;5129677;27;20058;-83
2023/12/20 12:34:52;;;;;;;17.63;1.80;;;;;;;;;;5129324;27;20074;-84
2023/12/20 12:37:19;;;;;;;19.58;1.38;;;;;;;;;;5128816;27;20042;-83
2023/12/20 12:39:47;;;;;;;17.17;1.20;;;;;;;;;;5111628;27;20050;-84
2023/12/20 12:42:13;;;;;;;8.63;1.50;;;;;;;;;;5123229;27;20034;-83
2023/12/20 12:44:39;;;;;;;15.13;0.80;;;;;;;;;;5099443;27;20046;-84
2023/12/20 12:47:05;;;;;;;13.85;1.33;;;;;;;;;;5119139;27;20086;-85
2023/12/20 12:49:32;;;;;;;21.75;1.80;;;;;;;;;;5121163;27;20047;-85
2023/12/20 12:51:59;;;;;;;10.60;1.20;;;;;;;;;;5130314;27;20038;-85
2023/12/20 12:54:25;;;;;;;19.13;1.83;;;;;;;;;;5129126;27;20042;-84
2023/12/20 12:56:52;;;;;;;28.08;3.63;;;;;;;;;;5129662;27;20078;-83
2023/12/20 12:59:19;;;;;;;16.60;1.50;;;;;;;;;;5129725;27;20050;-84
2023/12/20 13:01:45;;;;;;;16.40;1.63;;;;;;;;;;5111383;27;20047;-84
2023/12/20 13:04:11;;;;;;;13.02;1.45;;;;;;;;;;5111384;27;20506;-84
2023/12/20 13:06:38;;;;;;;18.23;1.60;;;;;;;;;;5128253;27;20491;-83
2023/12/20 13:09:05;;;;;;;16.35;1.80;;;;;;;;;;5093889;27;20574;-84
2023/12/20 13:11:31;;;;;;;9.50;1.10;;;;;;;;;;5090254;27;20047;-85
2023/12/20 13:13:57;;;;;;;15.63;1.05;;;;;;;;;;5090224;27;20045;-84
2023/12/20 13:16:24;;;;;;;16.08;1.02;;;;;;;;;;5089814;27;20035;-85
2023/12/20 13:18:50;;;;;;;19.05;2.28;;;;;;;;;;5107478;27;20047;-83
2023/12/20 13:21:16;;;;;;;14.25;1.27;;;;;;;;;;5107071;27;20446;-84
2023/12/20 13:23:43;;;;;;;15.93;1.42;;;;;;;;;;5107526;27;20130;-84
2023/12/20 13:26:09;;;;;;;21.27;1.75;;;;;;;;;;5107378;27;20111;-84
2023/12/20 13:28:35;;;;;;;13.45;1.35;;;;;;;;;;5107446;27;20045;-82
2023/12/20 13:31:01;;;;;;;9.60;0.65;;;;;;;;;;5090910;27;20043;-85
2023/12/20 13:33:27;;;;;;;10.60;1.58;;;;;;;;;;5090446;27;20043;-83
2023/12/20 13:35:53;;;;;;;10.07;0.63;;;;;;;;;;5090654;27;20130;-82
2023/12/20 13:38:20;;;;;;;16.77;1.70;;;;;;;;;;5090714;27;20074;-83
2023/12/20 13:40:46;;;;;;;9.52;1.15;;;;;;;;;;5090319;27;20096;-83
2023/12/20 13:43:13;;;;;;;12.50;0.93;;;;;;;;;;5107797;27;20126;-81
2023/12/20 13:45:39;;;;;;;9.30;0.80;;;;;;;;;;5090257;27;20604;-83
2023/12/20 13:48:06;;;;;;;11.55;1.60;;;;;;;;;;5089977;27;20126;-81
2023/12/20 13:50:32;;;;;;;9.48;0.70;;;;;;;;;;5107027;27;20074;-83
2023/12/20 13:52:58;;;;;;;9.50;1.63;;;;;;;;;;5089870;27;20073;-82
2023/12/20 13:55:25;;;;;;;11.02;1.95;;;;;;;;;;5089698;27;20039;-82
2023/12/20 13:57:51;;;;;;;11.85;0.82;;;;;;;;;;5106680;27;20053;-83
2023/12/20 14:00:26;;;;;;;5.80;0.30;;;;;;;;;;5107313;27;20384;-82
2023/12/20 14:02:53;;;;;;;7.93;0.80;;;;;;;;;;5090122;27;20042;-81
2023/12/20 14:05:19;;;;;;;11.05;0.77;;;;;;;;;;5092060;27;20043;-82
2023/12/20 14:07:46;;;;;;;13.23;1.67;;;;;;;;;;5127246;27;20043;-82
2023/12/20 14:10:13;;;;;;;11.40;0.52;;;;;;;;;;5110907;27;20051;-82
2023/12/20 14:12:39;;;;;;;16.33;1.75;;;;;;;;;;5092899;27;20539;-83
2023/12/20 14:15:10;;;;;;;11.25;0.95;;;5.70;99.90;;;;;;5091812;27;20042;-84
2023/12/20 14:17:41;;;;;;;12.75;1.20;;;;;;;;;;5106917;27;20042;-81
2023/12/20 14:20:08;;;;;;;9.20;0.45;;;;;;;;;;5089665;27;20072;-83
2023/12/20 14:22:34;;;;;;;10.60;0.60;;;;;;;;;;5089485;27;20047;-81
2023/12/20 14:25:00;;;;;;;10.13;1.63;;;;;;;;;;5089700;27;20043;-82
2023/12/20 14:27:30;;;;;;;12.27;0.60;;;;;;;;;;5106963;27;20423;-82
2023/12/20 14:29:56;;;;;;;9.73;1.15;;;;;;;;;;5090143;27;20047;-82